sensor_id;sensor_type;location;lat;lon;timestamp;pressure;altitude;pressure_sealevel;temperature;humidity
29825;BME280;16713;52.916;12.834;2023-07-30T00:00:30;100228.16;;;17.78;76.28
29825;BME280;16713;52.916;12.834;2023-07-30T00:02:57;100226.97;;;17.75;76.18
29825;BME280;16713;52.916;12.834;2023-07-30T00:05:23;100225.78;;;17.76;76.96
29825;BME280;16713;52.916;12.834;2023-07-30T00:07:50;100227.75;;;17.79;76.97
29825;BME280;16713;52.916;12.834;2023-07-30T00:10:16;100227.34;;;17.77;76.71
29825;BME280;16713;52.916;12.834;2023-07-30T00:12:43;100230.16;;;17.74;76.56
29825;BME280;16713;52.916;12.834;2023-07-30T00:15:10;100223.84;;;17.73;76.66
29825;BME280;16713;52.916;12.834;2023-07-30T00:17:36;100223.44;;;17.75;75.97
29825;BME280;16713;52.916;12.834;2023-07-30T00:20:03;100224.22;;;17.75;76.39
29825;BME280;16713;52.916;12.834;2023-07-30T00:22:31;100227.41;;;17.74;76.42
29825;BME280;16713;52.916;12.834;2023-07-30T00:24:57;100230.59;;;17.72;76.72
29825;BME280;16713;52.916;12.834;2023-07-30T00:27:24;100230.97;;;17.74;76.22
29825;BME280;16713;52.916;12.834;2023-07-30T00:29:51;100223.13;;;17.66;76.48
29825;BME280;16713;52.916;12.834;2023-07-30T00:32:17;100237.00;;;17.66;76.95
29825;BME280;16713;52.916;12.834;2023-07-30T00:34:44;100227.13;;;17.65;76.82
29825;BME280;16713;52.916;12.834;2023-07-30T00:37:10;100227.13;;;17.65;77.42
29825;BME280;16713;52.916;12.834;2023-07-30T00:39:36;100228.00;;;17.58;77.00
29825;BME280;16713;52.916;12.834;2023-07-30T00:42:03;100221.59;;;17.61;76.41
29825;BME280;16713;52.916;12.834;2023-07-30T00:44:30;100227.19;;;17.58;76.35
29825;BME280;16713;52.916;12.834;2023-07-30T00:46:56;100233.97;;;17.53;77.09
29825;BME280;16713;52.916;12.834;2023-07-30T00:49:23;100220.91;;;17.54;77.06
29825;BME280;16713;52.916;12.834;2023-07-30T00:51:49;100229.22;;;17.54;76.64
29825;BME280;16713;52.916;12.834;2023-07-30T00:54:16;100220.53;;;17.52;76.88
29825;BME280;16713;52.916;12.834;2023-07-30T00:56:49;100224.50;;;17.51;76.46
29825;BME280;16713;52.916;12.834;2023-07-30T00:59:17;100216.59;;;17.49;76.48
29825;BME280;16713;52.916;12.834;2023-07-30T01:01:46;100224.53;;;17.47;77.10
29825;BME280;16713;52.916;12.834;2023-07-30T01:04:16;100221.00;;;17.43;76.80
29825;BME280;16713;52.916;12.834;2023-07-30T01:06:43;100219.06;;;17.40;76.54
29825;BME280;16713;52.916;12.834;2023-07-30T01:09:10;100216.72;;;17.38;76.68
29825;BME280;16713;52.916;12.834;2023-07-30T01:11:38;100217.13;;;17.37;76.51
29825;BME280;16713;52.916;12.834;2023-07-30T01:14:06;100213.97;;;17.35;76.67
29825;BME280;16713;52.916;12.834;2023-07-30T01:16:32;100211.63;;;17.33;76.37
29825;BME280;16713;52.916;12.834;2023-07-30T01:18:59;100216.00;;;17.31;76.46
29825;BME280;16713;52.916;12.834;2023-07-30T01:21:36;100208.88;;;17.30;76.44
29825;BME280;16713;52.916;12.834;2023-07-30T01:24:04;100210.91;;;17.26;76.53
29825;BME280;16713;52.916;12.834;2023-07-30T01:26:36;100218.44;;;17.25;76.85
29825;BME280;16713;52.916;12.834;2023-07-30T01:29:07;100206.56;;;17.25;76.53
29825;BME280;16713;52.916;12.834;2023-07-30T01:31:37;100212.56;;;17.20;76.38
29825;BME280;16713;52.916;12.834;2023-07-30T01:34:07;100214.16;;;17.17;76.23
29825;BME280;16713;52.916;12.834;2023-07-30T01:36:37;100214.94;;;17.14;76.40
29825;BME280;16713;52.916;12.834;2023-07-30T01:39:05;100223.28;;;17.11;76.24
29825;BME280;16713;52.916;12.834;2023-07-30T01:41:32;100220.97;;;17.06;75.54
29825;BME280;16713;52.916;12.834;2023-07-30T01:43:58;100227.34;;;17.03;75.73
29825;BME280;16713;52.916;12.834;2023-07-30T01:46:25;100223.03;;;16.98;75.87
29825;BME280;16713;52.916;12.834;2023-07-30T01:48:51;100229.78;;;16.94;75.63
29825;BME280;16713;52.916;12.834;2023-07-30T01:51:17;100229.03;;;16.90;76.05
29825;BME280;16713;52.916;12.834;2023-07-30T01:53:44;100234.22;;;16.88;75.87
29825;BME280;16713;52.916;12.834;2023-07-30T01:56:10;100235.81;;;16.82;75.95
29825;BME280;16713;52.916;12.834;2023-07-30T01:58:37;100235.06;;;16.78;75.41
29825;BME280;16713;52.916;12.834;2023-07-30T02:01:03;100244.22;;;16.75;75.68
29825;BME280;16713;52.916;12.834;2023-07-30T02:03:30;100241.84;;;16.73;75.64
29825;BME280;16713;52.916;12.834;2023-07-30T02:05:56;100251.75;;;16.71;76.04
29825;BME280;16713;52.916;12.834;2023-07-30T02:08:23;100250.97;;;16.70;75.68
29825;BME280;16713;52.916;12.834;2023-07-30T02:10:56;100258.91;;;16.68;76.13
29825;BME280;16713;52.916;12.834;2023-07-30T02:13:24;100251.41;;;16.65;75.93
29825;BME280;16713;52.916;12.834;2023-07-30T02:15:50;100255.00;;;16.62;76.12
29825;BME280;16713;52.916;12.834;2023-07-30T02:18:17;100252.25;;;16.59;75.82
29825;BME280;16713;52.916;12.834;2023-07-30T02:20:44;100249.47;;;16.59;76.26
29825;BME280;16713;52.916;12.834;2023-07-30T02:23:10;100245.91;;;16.58;76.59
29825;BME280;16713;52.916;12.834;2023-07-30T02:25:37;100236.81;;;16.58;76.44
29825;BME280;16713;52.916;12.834;2023-07-30T02:28:04;100247.09;;;16.57;76.27
29825;BME280;16713;52.916;12.834;2023-07-30T02:30:33;100254.22;;;16.55;76.36
29825;BME280;16713;52.916;12.834;2023-07-30T02:33:00;100248.69;;;16.55;76.68
29825;BME280;16713;52.916;12.834;2023-07-30T02:35:26;100241.19;;;16.55;76.05
29825;BME280;16713;52.916;12.834;2023-07-30T02:37:53;100251.09;;;16.53;76.29
29825;BME280;16713;52.916;12.834;2023-07-30T02:40:19;100244.75;;;16.52;76.50
29825;BME280;16713;52.916;12.834;2023-07-30T02:42:46;100245.97;;;16.51;76.25
29825;BME280;16713;52.916;12.834;2023-07-30T02:45:12;100249.91;;;16.50;76.85
29825;BME280;16713;52.916;12.834;2023-07-30T02:47:39;100250.72;;;16.51;76.24
29825;BME280;16713;52.916;12.834;2023-07-30T02:50:06;100240.81;;;16.50;76.37
29825;BME280;16713;52.916;12.834;2023-07-30T02:52:32;100240.44;;;16.48;75.97
29825;BME280;16713;52.916;12.834;2023-07-30T02:54:59;100242.44;;;16.47;76.11
29825;BME280;16713;52.916;12.834;2023-07-30T02:57:25;100244.81;;;16.45;76.40
29825;BME280;16713;52.916;12.834;2023-07-30T02:59:52;100248.38;;;16.42;76.67
29825;BME280;16713;52.916;12.834;2023-07-30T03:02:18;100246.41;;;16.43;76.26
29825;BME280;16713;52.916;12.834;2023-07-30T03:04:45;100244.06;;;16.41;76.20
29825;BME280;16713;52.916;12.834;2023-07-30T03:07:11;100240.91;;;16.36;76.35
29825;BME280;16713;52.916;12.834;2023-07-30T03:09:38;100246.44;;;16.36;76.64
29825;BME280;16713;52.916;12.834;2023-07-30T03:12:04;100250.78;;;16.33;76.14
29825;BME280;16713;52.916;12.834;2023-07-30T03:14:31;100252.78;;;16.29;76.29
29825;BME280;16713;52.916;12.834;2023-07-30T03:16:57;100255.94;;;16.28;76.55
29825;BME280;16713;52.916;12.834;2023-07-30T03:19:24;100250.81;;;16.26;76.41
29825;BME280;16713;52.916;12.834;2023-07-30T03:21:50;100248.47;;;16.25;76.55
29825;BME280;16713;52.916;12.834;2023-07-30T03:24:17;100243.72;;;16.25;76.68
29825;BME280;16713;52.916;12.834;2023-07-30T03:26:43;100243.75;;;16.22;76.34
29825;BME280;16713;52.916;12.834;2023-07-30T03:29:09;100252.44;;;16.24;76.55
29825;BME280;16713;52.916;12.834;2023-07-30T03:31:36;100254.00;;;16.25;76.90
29825;BME280;16713;52.916;12.834;2023-07-30T03:34:03;100251.22;;;16.25;77.04
29825;BME280;16713;52.916;12.834;2023-07-30T03:36:29;100246.50;;;16.25;76.95
29825;BME280;16713;52.916;12.834;2023-07-30T03:38:56;100242.53;;;16.26;77.13
29825;BME280;16713;52.916;12.834;2023-07-30T03:41:22;100254.38;;;16.27;76.84
29825;BME280;16713;52.916;12.834;2023-07-30T03:43:48;100264.66;;;16.30;77.21
29825;BME280;16713;52.916;12.834;2023-07-30T03:46:15;100262.69;;;16.30;77.28
29825;BME280;16713;52.916;12.834;2023-07-30T03:48:42;100256.75;;;16.32;77.31
29825;BME280;16713;52.916;12.834;2023-07-30T03:51:08;100268.97;;;16.31;77.37
29825;BME280;16713;52.916;12.834;2023-07-30T03:53:35;100263.03;;;16.32;77.09
29825;BME280;16713;52.916;12.834;2023-07-30T03:56:02;100257.91;;;16.31;77.50
29825;BME280;16713;52.916;12.834;2023-07-30T03:58:28;100256.75;;;16.35;77.71
29825;BME280;16713;52.916;12.834;2023-07-30T04:00:57;100261.88;;;16.37;77.71
29825;BME280;16713;52.916;12.834;2023-07-30T04:03:23;100257.50;;;16.39;77.80
29825;BME280;16713;52.916;12.834;2023-07-30T04:05:50;100266.97;;;16.42;77.89
29825;BME280;16713;52.916;12.834;2023-07-30T04:08:16;100254.31;;;16.41;77.88
29825;BME280;16713;52.916;12.834;2023-07-30T04:10:43;100256.69;;;16.42;78.68
29825;BME280;16713;52.916;12.834;2023-07-30T04:13:09;100251.13;;;16.46;78.68
29825;BME280;16713;52.916;12.834;2023-07-30T04:15:36;100258.66;;;16.45;78.64
29825;BME280;16713;52.916;12.834;2023-07-30T04:18:02;100259.84;;;16.48;79.29
29825;BME280;16713;52.916;12.834;2023-07-30T04:20:29;100257.03;;;16.51;79.36
29825;BME280;16713;52.916;12.834;2023-07-30T04:22:55;100261.78;;;16.54;78.89
29825;BME280;16713;52.916;12.834;2023-07-30T04:25:22;100259.75;;;16.58;79.12
29825;BME280;16713;52.916;12.834;2023-07-30T04:27:48;100266.47;;;16.61;79.57
29825;BME280;16713;52.916;12.834;2023-07-30T04:30:15;100268.88;;;16.55;80.19
29825;BME280;16713;52.916;12.834;2023-07-30T04:32:41;100269.59;;;16.63;80.49
29825;BME280;16713;52.916;12.834;2023-07-30T04:35:08;100271.97;;;16.64;80.27
29825;BME280;16713;52.916;12.834;2023-07-30T04:37:34;100271.94;;;16.68;80.28
29825;BME280;16713;52.916;12.834;2023-07-30T04:40:01;100273.50;;;16.72;80.53
29825;BME280;16713;52.916;12.834;2023-07-30T04:42:27;100274.66;;;16.75;80.14
29825;BME280;16713;52.916;12.834;2023-07-30T04:44:54;100268.31;;;16.78;80.36
29825;BME280;16713;52.916;12.834;2023-07-30T04:47:20;100270.69;;;16.79;80.98
29825;BME280;16713;52.916;12.834;2023-07-30T04:49:47;100271.44;;;16.83;80.61
29825;BME280;16713;52.916;12.834;2023-07-30T04:52:13;100275.78;;;16.84;80.47
29825;BME280;16713;52.916;12.834;2023-07-30T04:54:40;100273.75;;;16.88;80.29
29825;BME280;16713;52.916;12.834;2023-07-30T04:57:06;100272.97;;;16.91;80.89
29825;BME280;16713;52.916;12.834;2023-07-30T04:59:33;100276.50;;;16.95;81.04
29825;BME280;16713;52.916;12.834;2023-07-30T05:02:02;100285.59;;;16.96;81.08
29825;BME280;16713;52.916;12.834;2023-07-30T05:04:29;100282.81;;;16.99;81.08
29825;BME280;16713;52.916;12.834;2023-07-30T05:06:55;100272.09;;;16.98;81.23
29825;BME280;16713;52.916;12.834;2023-07-30T05:09:21;100272.06;;;17.05;80.93
29825;BME280;16713;52.916;12.834;2023-07-30T05:11:48;100259.75;;;17.06;81.02
29825;BME280;16713;52.916;12.834;2023-07-30T05:14:14;100270.06;;;17.09;81.21
29825;BME280;16713;52.916;12.834;2023-07-30T05:16:41;100268.44;;;17.11;81.39
29825;BME280;16713;52.916;12.834;2023-07-30T05:19:07;100274.78;;;17.12;81.38
29825;BME280;16713;52.916;12.834;2023-07-30T05:21:34;100275.13;;;17.17;81.25
29825;BME280;16713;52.916;12.834;2023-07-30T05:24:01;100273.16;;;17.18;81.46
29825;BME280;16713;52.916;12.834;2023-07-30T05:26:28;100279.50;;;17.15;81.37
29825;BME280;16713;52.916;12.834;2023-07-30T05:28:54;100283.78;;;17.26;81.36
29825;BME280;16713;52.916;12.834;2023-07-30T05:31:21;100282.16;;;17.29;81.65
29825;BME280;16713;52.916;12.834;2023-07-30T05:33:47;100281.34;;;17.32;81.53
29825;BME280;16713;52.916;12.834;2023-07-30T05:36:14;100285.63;;;17.36;81.16
29825;BME280;16713;52.916;12.834;2023-07-30T05:38:40;100278.09;;;17.40;81.23
29825;BME280;16713;52.916;12.834;2023-07-30T05:41:06;100287.94;;;17.45;81.61
29825;BME280;16713;52.916;12.834;2023-07-30T05:43:33;100286.69;;;17.49;81.85
29825;BME280;16713;52.916;12.834;2023-07-30T05:46:00;100283.56;;;17.48;81.41
29825;BME280;16713;52.916;12.834;2023-07-30T05:48:26;100287.09;;;17.52;80.89
29825;BME280;16713;52.916;12.834;2023-07-30T05:50:52;100281.13;;;17.53;81.36
29825;BME280;16713;52.916;12.834;2023-07-30T05:53:19;100282.31;;;17.56;81.48
29825;BME280;16713;52.916;12.834;2023-07-30T05:55:45;100283.44;;;17.58;81.75
29825;BME280;16713;52.916;12.834;2023-07-30T05:58:12;100284.56;;;17.64;80.78
29825;BME280;16713;52.916;12.834;2023-07-30T06:00:38;100291.31;;;17.63;81.43
29825;BME280;16713;52.916;12.834;2023-07-30T06:03:05;100284.53;;;17.68;80.87
29825;BME280;16713;52.916;12.834;2023-07-30T06:05:32;100280.13;;;17.70;81.17
29825;BME280;16713;52.916;12.834;2023-07-30T06:07:59;100279.69;;;17.75;81.81
29825;BME280;16713;52.916;12.834;2023-07-30T06:10:25;100288.00;;;17.75;82.01
29825;BME280;16713;52.916;12.834;2023-07-30T06:12:52;100280.88;;;17.78;81.49
29825;BME280;16713;52.916;12.834;2023-07-30T06:15:18;100278.06;;;17.81;81.04
29825;BME280;16713;52.916;12.834;2023-07-30T06:17:45;100282.41;;;17.82;80.22
29825;BME280;16713;52.916;12.834;2023-07-30T06:20:11;100284.72;;;17.87;81.37
29825;BME280;16713;52.916;12.834;2023-07-30T06:22:38;100282.25;;;17.93;81.43
29825;BME280;16713;52.916;12.834;2023-07-30T06:25:04;100279.06;;;17.94;80.08
29825;BME280;16713;52.916;12.834;2023-07-30T06:27:31;100285.69;;;18.07;79.96
29825;BME280;16713;52.916;12.834;2023-07-30T06:29:58;100293.53;;;18.12;80.66
29825;BME280;16713;52.916;12.834;2023-07-30T06:32:24;100288.03;;;18.09;79.59
29825;BME280;16713;52.916;12.834;2023-07-30T06:34:51;100291.88;;;18.18;80.00
29825;BME280;16713;52.916;12.834;2023-07-30T06:37:17;100285.19;;;18.16;79.45
29825;BME280;16713;52.916;12.834;2023-07-30T06:39:44;100279.53;;;18.23;79.64
29825;BME280;16713;52.916;12.834;2023-07-30T06:42:10;100289.78;;;18.29;79.76
29825;BME280;16713;52.916;12.834;2023-07-30T06:44:37;100282.22;;;18.30;80.27
29825;BME280;16713;52.916;12.834;2023-07-30T06:47:03;100287.81;;;18.26;80.23
29825;BME280;16713;52.916;12.834;2023-07-30T06:49:30;100286.13;;;18.36;79.43
29825;BME280;16713;52.916;12.834;2023-07-30T06:51:56;100287.59;;;18.44;80.23
29825;BME280;16713;52.916;12.834;2023-07-30T06:54:23;100290.38;;;18.44;79.89
29825;BME280;16713;52.916;12.834;2023-07-30T06:56:49;100289.81;;;18.52;79.38
29825;BME280;16713;52.916;12.834;2023-07-30T06:59:16;100292.97;;;18.54;79.86
29825;BME280;16713;52.916;12.834;2023-07-30T07:01:42;100288.53;;;18.60;78.86
29825;BME280;16713;52.916;12.834;2023-07-30T07:04:09;100294.19;;;18.53;78.10
29825;BME280;16713;52.916;12.834;2023-07-30T07:06:35;100297.69;;;18.57;77.80
29825;BME280;16713;52.916;12.834;2023-07-30T07:09:02;100298.38;;;18.65;78.60
29825;BME280;16713;52.916;12.834;2023-07-30T07:11:28;100303.22;;;18.61;78.17
29825;BME280;16713;52.916;12.834;2023-07-30T07:13:55;100297.78;;;18.50;78.05
29825;BME280;16713;52.916;12.834;2023-07-30T07:16:21;100315.59;;;18.56;76.92
29825;BME280;16713;52.916;12.834;2023-07-30T07:18:48;100315.31;;;18.77;77.52
29825;BME280;16713;52.916;12.834;2023-07-30T07:21:15;100315.19;;;18.84;78.29
29825;BME280;16713;52.916;12.834;2023-07-30T07:23:41;100313.91;;;18.89;77.20
29825;BME280;16713;52.916;12.834;2023-07-30T07:26:08;100323.03;;;18.90;77.21
29825;BME280;16713;52.916;12.834;2023-07-30T07:28:35;100318.94;;;18.98;76.71
29825;BME280;16713;52.916;12.834;2023-07-30T07:31:02;100320.34;;;19.09;76.52
29825;BME280;16713;52.916;12.834;2023-07-30T07:33:28;100312.31;;;19.15;74.24
29825;BME280;16713;52.916;12.834;2023-07-30T07:36:05;100316.91;;;19.25;74.43
29825;BME280;16713;52.916;12.834;2023-07-30T07:38:33;100313.22;;;19.31;74.47
29825;BME280;16713;52.916;12.834;2023-07-30T07:41:00;100322.38;;;19.32;74.23
29825;BME280;16713;52.916;12.834;2023-07-30T07:43:27;100331.28;;;19.46;73.34
29825;BME280;16713;52.916;12.834;2023-07-30T07:45:54;100327.28;;;19.47;73.26
29825;BME280;16713;52.916;12.834;2023-07-30T07:48:20;100327.16;;;19.54;72.13
29825;BME280;16713;52.916;12.834;2023-07-30T07:50:47;100324.66;;;19.60;71.53
29825;BME280;16713;52.916;12.834;2023-07-30T07:53:13;100332.84;;;19.70;71.17
29825;BME280;16713;52.916;12.834;2023-07-30T07:55:40;100336.81;;;19.69;71.49
29825;BME280;16713;52.916;12.834;2023-07-30T07:58:06;100330.69;;;19.78;71.01
29825;BME280;16713;52.916;12.834;2023-07-30T08:00:32;100337.44;;;19.80;71.53
29825;BME280;16713;52.916;12.834;2023-07-30T08:02:59;100340.34;;;19.93;70.06
29825;BME280;16713;52.916;12.834;2023-07-30T08:05:26;100345.06;;;19.96;70.63
29825;BME280;16713;52.916;12.834;2023-07-30T08:07:52;100343.41;;;19.98;71.96
29825;BME280;16713;52.916;12.834;2023-07-30T08:10:19;100346.50;;;20.04;71.55
29825;BME280;16713;52.916;12.834;2023-07-30T08:12:45;100345.72;;;20.03;71.70
29825;BME280;16713;52.916;12.834;2023-07-30T08:15:14;100343.72;;;20.04;70.70
29825;BME280;16713;52.916;12.834;2023-07-30T08:17:41;100354.13;;;20.00;71.21
29825;BME280;16713;52.916;12.834;2023-07-30T08:20:07;100347.38;;;20.01;69.49
29825;BME280;16713;52.916;12.834;2023-07-30T08:22:34;100345.66;;;20.07;70.57
29825;BME280;16713;52.916;12.834;2023-07-30T08:25:01;100346.50;;;20.04;70.07
29825;BME280;16713;52.916;12.834;2023-07-30T08:27:28;100352.78;;;20.08;69.49
29825;BME280;16713;52.916;12.834;2023-07-30T08:29:54;100352.44;;;20.06;69.27
29825;BME280;16713;52.916;12.834;2023-07-30T08:32:20;100353.25;;;20.03;69.99
29825;BME280;16713;52.916;12.834;2023-07-30T08:34:47;100349.19;;;19.88;69.48
29825;BME280;16713;52.916;12.834;2023-07-30T08:37:14;100349.78;;;19.99;69.54
29825;BME280;16713;52.916;12.834;2023-07-30T08:39:40;100352.19;;;19.97;70.07
29825;BME280;16713;52.916;12.834;2023-07-30T08:42:07;100345.94;;;19.93;68.15
29825;BME280;16713;52.916;12.834;2023-07-30T08:44:34;100346.63;;;19.97;67.88
29825;BME280;16713;52.916;12.834;2023-07-30T08:47:01;100347.13;;;19.92;66.87
29825;BME280;16713;52.916;12.834;2023-07-30T08:49:27;100346.44;;;20.07;67.81
29825;BME280;16713;52.916;12.834;2023-07-30T08:51:59;100355.56;;;20.08;68.45
29825;BME280;16713;52.916;12.834;2023-07-30T08:54:30;100349.22;;;20.07;67.48
29825;BME280;16713;52.916;12.834;2023-07-30T08:57:01;100346.28;;;20.14;67.30
29825;BME280;16713;52.916;12.834;2023-07-30T08:59:31;100347.88;;;20.15;67.94
29825;BME280;16713;52.916;12.834;2023-07-30T09:02:00;100351.84;;;20.14;68.07
29825;BME280;16713;52.916;12.834;2023-07-30T09:04:29;100361.72;;;20.19;67.73
29825;BME280;16713;52.916;12.834;2023-07-30T09:07:00;100353.03;;;20.17;67.12
29825;BME280;16713;52.916;12.834;2023-07-30T09:09:26;100363.78;;;20.15;66.47
29825;BME280;16713;52.916;12.834;2023-07-30T09:11:53;100361.41;;;20.17;64.82
29825;BME280;16713;52.916;12.834;2023-07-30T09:14:22;100361.31;;;20.21;64.89
29825;BME280;16713;52.916;12.834;2023-07-30T09:16:56;100361.91;;;20.32;66.33
29825;BME280;16713;52.916;12.834;2023-07-30T09:19:23;100360.09;;;20.22;67.46
29825;BME280;16713;52.916;12.834;2023-07-30T09:21:50;100364.25;;;20.33;66.94
29825;BME280;16713;52.916;12.834;2023-07-30T09:24:21;100358.94;;;20.39;65.98
29825;BME280;16713;52.916;12.834;2023-07-30T09:26:48;100361.78;;;20.35;66.06
29825;BME280;16713;52.916;12.834;2023-07-30T09:29:14;100364.81;;;20.44;66.57
29825;BME280;16713;52.916;12.834;2023-07-30T09:31:51;100360.91;;;20.22;66.11
29825;BME280;16713;52.916;12.834;2023-07-30T09:34:21;100360.97;;;20.38;65.79
29825;BME280;16713;52.916;12.834;2023-07-30T09:36:50;100364.25;;;20.33;66.88
29825;BME280;16713;52.916;12.834;2023-07-30T09:39:25;100358.75;;;20.30;65.64
29825;BME280;16713;52.916;12.834;2023-07-30T09:41:59;100370.16;;;20.35;66.37
29825;BME280;16713;52.916;12.834;2023-07-30T09:44:26;100365.59;;;20.45;66.57
29825;BME280;16713;52.916;12.834;2023-07-30T09:46:53;100368.50;;;20.57;65.36
29825;BME280;16713;52.916;12.834;2023-07-30T09:49:19;100380.22;;;20.68;65.30
29825;BME280;16713;52.916;12.834;2023-07-30T09:51:46;100381.25;;;20.74;64.25
29825;BME280;16713;52.916;12.834;2023-07-30T09:54:13;100377.47;;;20.84;63.72
29825;BME280;16713;52.916;12.834;2023-07-30T09:56:41;100378.03;;;20.95;64.43
29825;BME280;16713;52.916;12.834;2023-07-30T09:59:09;100384.66;;;21.01;63.07
29825;BME280;16713;52.916;12.834;2023-07-30T10:01:42;100385.09;;;21.00;63.67
29825;BME280;16713;52.916;12.834;2023-07-30T10:04:10;100391.81;;;21.02;62.91
29825;BME280;16713;52.916;12.834;2023-07-30T10:06:45;100388.50;;;21.07;62.43
29825;BME280;16713;52.916;12.834;2023-07-30T10:09:14;100382.84;;;21.11;62.05
29825;BME280;16713;52.916;12.834;2023-07-30T10:11:42;100386.69;;;21.01;62.72
29825;BME280;16713;52.916;12.834;2023-07-30T10:14:10;100390.00;;;20.76;63.50
29825;BME280;16713;52.916;12.834;2023-07-30T10:16:37;100394.41;;;20.93;63.27
29825;BME280;16713;52.916;12.834;2023-07-30T10:19:04;100390.59;;;21.03;62.65
29825;BME280;16713;52.916;12.834;2023-07-30T10:21:32;100390.44;;;21.10;62.45
29825;BME280;16713;52.916;12.834;2023-07-30T10:24:01;100396.56;;;21.21;61.72
29825;BME280;16713;52.916;12.834;2023-07-30T10:26:33;100390.25;;;21.17;61.59
29825;BME280;16713;52.916;12.834;2023-07-30T10:29:18;100391.84;;;21.18;62.75
29825;BME280;16713;52.916;12.834;2023-07-30T10:31:54;100388.69;;;21.16;61.84
29825;BME280;16713;52.916;12.834;2023-07-30T10:34:25;100386.16;;;21.22;62.44
29825;BME280;16713;52.916;12.834;2023-07-30T10:36:55;100391.06;;;21.34;63.11
29825;BME280;16713;52.916;12.834;2023-07-30T10:39:28;100385.47;;;21.34;62.80
29825;BME280;16713;52.916;12.834;2023-07-30T10:41:56;100389.22;;;21.27;62.60
29825;BME280;16713;52.916;12.834;2023-07-30T10:44:28;100392.47;;;21.26;61.84
29825;BME280;16713;52.916;12.834;2023-07-30T10:46:56;100385.47;;;21.34;62.31
29825;BME280;16713;52.916;12.834;2023-07-30T10:49:23;100391.66;;;21.41;61.50
29825;BME280;16713;52.916;12.834;2023-07-30T10:51:57;100391.84;;;21.34;61.11
29825;BME280;16713;52.916;12.834;2023-07-30T10:54:23;100385.31;;;21.41;61.62
29825;BME280;16713;52.916;12.834;2023-07-30T10:56:51;100385.41;;;21.37;62.17
29825;BME280;16713;52.916;12.834;2023-07-30T10:59:19;100393.69;;;21.25;61.60
29825;BME280;16713;52.916;12.834;2023-07-30T11:01:46;100390.25;;;21.17;62.43
29825;BME280;16713;52.916;12.834;2023-07-30T11:04:19;100389.31;;;21.24;61.97
29825;BME280;16713;52.916;12.834;2023-07-30T11:06:49;100389.75;;;21.22;61.30
29825;BME280;16713;52.916;12.834;2023-07-30T11:09:24;100384.69;;;21.17;59.91
29825;BME280;16713;52.916;12.834;2023-07-30T11:11:52;100387.75;;;21.23;59.99
29825;BME280;16713;52.916;12.834;2023-07-30T11:14:23;100379.09;;;21.17;58.95
29825;BME280;16713;52.916;12.834;2023-07-30T11:16:56;100377.09;;;21.18;57.54
29825;BME280;16713;52.916;12.834;2023-07-30T11:19:25;100373.38;;;21.24;57.46
29825;BME280;16713;52.916;12.834;2023-07-30T11:21:54;100385.13;;;21.32;58.93
29825;BME280;16713;52.916;12.834;2023-07-30T11:24:21;100384.34;;;21.31;59.79
29825;BME280;16713;52.916;12.834;2023-07-30T11:26:58;100387.41;;;21.37;59.14
29825;BME280;16713;52.916;12.834;2023-07-30T11:29:25;100384.97;;;21.39;59.01
29825;BME280;16713;52.916;12.834;2023-07-30T11:31:56;100379.63;;;21.28;58.73
29825;BME280;16713;52.916;12.834;2023-07-30T11:34:23;100386.28;;;21.34;58.65
29825;BME280;16713;52.916;12.834;2023-07-30T11:36:50;100383.28;;;21.41;60.31
29825;BME280;16713;52.916;12.834;2023-07-30T11:39:17;100387.03;;;21.35;61.47
29825;BME280;16713;52.916;12.834;2023-07-30T11:41:44;100389.75;;;21.38;60.39
29825;BME280;16713;52.916;12.834;2023-07-30T11:44:38;100390.53;;;21.39;60.42
29825;BME280;16713;52.916;12.834;2023-07-30T11:47:07;100386.59;;;21.36;60.56
29825;BME280;16713;52.916;12.834;2023-07-30T11:49:36;100390.91;;;21.41;59.79
29825;BME280;16713;52.916;12.834;2023-07-30T11:52:06;100379.53;;;21.32;59.59
29825;BME280;16713;52.916;12.834;2023-07-30T11:54:34;100379.31;;;21.26;59.84
29825;BME280;16713;52.916;12.834;2023-07-30T11:57:01;100386.53;;;21.40;60.08
29825;BME280;16713;52.916;12.834;2023-07-30T11:59:27;100390.09;;;21.40;59.63
29825;BME280;16713;52.916;12.834;2023-07-30T12:01:54;100380.59;;;21.38;59.70
29825;BME280;16713;52.916;12.834;2023-07-30T12:04:20;100369.25;;;21.45;59.57
29825;BME280;16713;52.916;12.834;2023-07-30T12:06:49;100376.53;;;21.59;58.20
29825;BME280;16713;52.916;12.834;2023-07-30T12:09:21;100380.34;;;21.65;58.62
29825;BME280;16713;52.916;12.834;2023-07-30T12:11:54;100379.56;;;21.64;59.47
29825;BME280;16713;52.916;12.834;2023-07-30T12:14:26;100377.72;;;21.58;59.73
29825;BME280;16713;52.916;12.834;2023-07-30T12:16:57;100380.88;;;21.60;58.95
29825;BME280;16713;52.916;12.834;2023-07-30T12:19:24;100390.19;;;21.69;58.73
29825;BME280;16713;52.916;12.834;2023-07-30T12:21:50;100386.72;;;21.65;59.18
29825;BME280;16713;52.916;12.834;2023-07-30T12:24:17;100386.63;;;21.69;59.56
29825;BME280;16713;52.916;12.834;2023-07-30T12:26:43;100396.06;;;21.75;60.61
29825;BME280;16713;52.916;12.834;2023-07-30T12:29:10;100387.69;;;21.75;60.18
29825;BME280;16713;52.916;12.834;2023-07-30T12:31:36;100393.16;;;21.78;61.17
29825;BME280;16713;52.916;12.834;2023-07-30T12:34:03;100381.97;;;21.78;60.37
29825;BME280;16713;52.916;12.834;2023-07-30T12:36:30;100386.34;;;21.79;60.27
29825;BME280;16713;52.916;12.834;2023-07-30T12:38:56;100383.13;;;21.81;59.73
29825;BME280;16713;52.916;12.834;2023-07-30T12:41:23;100384.69;;;21.82;60.50